Time;durP1;ratioP1;P1;durP2;ratioP2;P2;SDS_P1;SDS_P2;PMS_P1;PMS_P2;Temp;Humidity;BMP_temperature;BMP_pressure;BME280_temperature;BME280_humidity;BME280_pressure;Samples;Min_cycle;Max_cycle;Signal;HPM_P1;HPM_P2
2022/01/13 00:01:03;;;;;;;45.90;21.30;;;;;;;-2.88;80.08;100441.13;220433;1271;22672;-71
2022/01/13 00:07:12;;;;;;;;;;;;;;;;;;;;;
2022/01/13 00:27:14;;;;;;;48.40;23.70;;;;;;;-2.56;80.93;100429.11;219733;1271;24710;-70
2022/01/13 00:40:41;;;;;;;;;;;;;;;;;;;;;
2022/01/13 00:46:40;;;;;;;;;;;;;;;;;;;;;
2022/01/13 00:59:13;;;;;;;;;;;;;;;;;;;;;
2022/01/13 01:04:55;;;;;;;;;;;;;;;;;;;;;
2022/01/13 01:11:05;;;;;;;48.20;23.20;;;;;;;-2.05;81.14;100501.46;219427;1271;24247;-70
2022/01/13 01:17:09;;;;;;;45.90;23.30;;;;;;;-2.08;81.49;100506.98;219732;1271;22551;-72
2022/01/13 01:23:11;;;;;;;49.90;24.20;;;;;;;-2.05;81.49;100512.98;219935;1271;22550;-70
2022/01/13 01:36:00;;;;;;;;;;;;;;;;;;;;;
2022/01/13 01:42:52;;;;;;;50.10;22.60;;;;;;;-1.96;81.69;100501.30;220667;1271;22548;-70
2022/01/13 01:49:23;;;;;;;47.20;22.60;;;;;;;-1.97;82.02;100470.58;219548;1271;22539;-70
2022/01/13 01:55:39;;;;;;;;;;;;;;;;;;;;;
2022/01/13 02:02:04;;;;;;;54.90;25.20;;;;;;;-1.78;82.22;100470.86;220004;1271;22613;-69
2022/01/13 02:08:19;;;;;;;47.60;22.70;;;;;;;-1.80;82.30;100422.38;218953;1271;22763;-71
2022/01/13 02:14:35;;;;;;;52.50;24.30;;;;;;;-1.84;82.76;100427.38;220990;1271;22534;-70
2022/01/13 02:21:24;;;;;;;;;;;;;;;;;;;;;
2022/01/13 02:27:57;;;;;;;51.40;22.50;;;;;;;-1.71;83.21;100466.06;218937;1271;25496;-70
2022/01/13 02:34:10;;;;;;;45.40;22.90;;;;;;;-1.62;83.34;100470.78;219883;1271;22646;-71
2022/01/13 02:40:36;;;;;;;;;;;;;;;;;;;;;
2022/01/13 02:47:32;;;;;;;;;;;;;;;;;;;;;
2022/01/13 02:54:22;;;;;;;46.80;22.10;;;;;;;-1.46;83.97;100417.29;220612;1271;22698;-71
2022/01/13 03:01:15;;;;;;;40.10;19.90;;;;;;;-1.43;83.97;100427.86;220649;1271;22583;-70
2022/01/13 03:14:35;;;;;;;36.70;19.10;;;;;;;-1.12;84.07;100457.57;219395;1271;22535;-69
2022/01/13 03:21:09;;;;;;;;;;;;;;;;;;;;;
2022/01/13 03:28:17;;;;;;;42.50;20.10;;;;;;;-1.06;84.08;100442.86;219079;1271;22593;-70
2022/01/13 03:34:57;;;;;;;33.40;17.00;;;;;;;-0.96;83.97;100439.64;219660;1271;22607;-70
2022/01/13 03:41:13;;;;;;;35.40;18.00;;;;;;;-0.92;83.91;100427.65;220132;1271;22538;-71
2022/01/13 03:54:53;;;;;;;;;;;;;;;;;;;;;
2022/01/13 04:08:40;;;;;;;;;;;;;;;;;;;;;
2022/01/13 04:28:12;;;;;;;32.90;16.90;;;;;;;-0.65;84.09;100419.38;219644;1271;22570;-70
2022/01/13 04:34:39;;;;;;;39.60;18.90;;;;;;;-0.70;83.87;100424.19;219156;1271;25329;-70
2022/01/13 04:41:06;;;;;;;;;;;;;;;;;;;;;
2022/01/13 04:47:09;;;;;;;36.30;17.80;;;;;;;-0.89;84.49;100413.23;219148;1271;22580;-70
2022/01/13 04:52:11;;;;;;;34.20;17.80;;;;;;;-0.87;84.31;100407.40;219699;1271;24465;-70
2022/01/13 04:57:17;;;;;;;34.40;18.50;;;;;;;-0.85;84.59;100397.58;220559;1270;22560;-69
2022/01/13 05:02:24;;;;;;;37.30;19.20;;;;;;;-0.87;84.54;100399.66;219678;1271;22546;-69
2022/01/13 05:07:38;;;;;;;36.30;19.80;;;;;;;-0.88;84.44;100412.57;220138;1270;22562;-69
2022/01/13 05:13:03;;;;;;;39.20;19.00;;;;;;;-0.89;84.60;100411.30;220005;1271;22579;-71
2022/01/13 05:18:49;;;;;;;38.50;18.90;;;;;;;-0.86;84.44;100418.58;219694;1271;25759;-70
2022/01/13 05:24:07;;;;;;;34.30;18.10;;;;;;;-0.80;84.56;100414.37;219971;1271;22557;-68
2022/01/13 05:29:17;;;;;;;30.10;17.30;;;;;;;-0.73;84.65;100414.25;219778;1271;25546;-70
2022/01/13 05:34:30;;;;;;;34.90;18.40;;;;;;;-0.71;84.48;100418.39;219434;1271;25378;-69
2022/01/13 05:39:45;;;;;;;34.40;18.10;;;;;;;-0.69;84.73;100426.27;219760;1271;24250;-70
2022/01/13 05:44:48;;;;;;;40.60;20.80;;;;;;;-0.70;84.43;100423.98;219953;1271;22541;-70
2022/01/13 05:49:51;;;;;;;37.30;19.10;;;;;;;-0.75;84.28;100412.42;219756;1271;22559;-70
2022/01/13 05:54:56;;;;;;;41.80;20.30;;;;;;;-0.80;84.37;100400.75;220071;1271;24243;-70
2022/01/13 06:00:07;;;;;;;51.50;23.80;;;;;;;-0.86;84.30;100395.94;219867;1271;22559;-69
2022/01/13 06:05:16;;;;;;;42.50;21.80;;;;;;;-0.95;84.29;100397.45;220027;1270;24254;-70
2022/01/13 06:10:19;;;;;;;48.00;23.70;;;;;;;-1.01;84.69;100383.27;220234;1270;22704;-69
2022/01/13 06:15:43;;;;;;;47.20;23.50;;;;;;;-1.07;84.55;100365.81;219298;1271;22541;-71
2022/01/13 06:21:26;;;;;;;53.30;24.30;;;;;;;-1.07;84.91;100373.91;219667;1270;24145;-70
2022/01/13 06:26:50;;;;;;;47.80;22.40;;;;;;;-1.05;84.70;100381.52;219755;1271;22611;-70
2022/01/13 06:32:01;;;;;;;47.90;23.50;;;;;;;-1.04;84.81;100399.45;219604;1271;22542;-69
2022/01/13 06:37:33;;;;;;;48.30;23.50;;;;;;;-1.03;84.47;100405.71;219953;1271;22548;-69
2022/01/13 06:43:01;;;;;;;48.10;23.60;;;;;;;-1.07;84.66;100401.13;219699;1271;22662;-70
2022/01/13 06:48:35;;;;;;;;;;;;;;;;;;;;;
2022/01/13 06:53:38;;;;;;;59.90;26.20;;;;;;;-1.19;84.53;100405.95;219260;1270;23071;-70
2022/01/13 06:58:59;;;;;;;52.40;27.20;;;;;;;-1.20;84.81;100410.94;219162;1270;25898;-70
2022/01/13 07:04:05;;;;;;;49.90;25.20;;;;;;;-1.21;84.56;100414.50;221585;1270;22718;-71
2022/01/13 07:14:37;;;;;;;46.20;23.30;;;;;;;-1.09;84.68;100427.27;221074;1270;23425;-71
2022/01/13 07:19:46;;;;;;;49.30;23.90;;;;;;;-1.01;84.48;100427.61;221111;1268;22662;-71
2022/01/13 07:25:21;;;;;;;46.60;22.70;;;;;;;-0.95;84.39;100436.73;221207;1269;23184;-71
2022/01/13 07:31:20;;;;;;;;;;;;;;;;;;;;;
2022/01/13 07:36:46;;;;;;;47.70;24.90;;;;;;;-0.87;84.06;100423.21;220988;1268;24116;-71
2022/01/13 07:41:48;;;;;;;50.30;24.40;;;;;;;-0.89;83.57;100410.48;221116;1268;22644;-71
2022/01/13 07:47:20;;;;;;;48.60;24.10;;;;;;;-0.89;83.40;100410.77;221027;1268;22557;-71
2022/01/13 07:53:04;;;;;;;45.70;24.00;;;;;;;-0.88;83.65;100388.95;220983;1269;22683;-71
2022/01/13 07:58:09;;;;;;;45.90;22.30;;;;;;;-0.93;83.28;100366.89;220987;1268;23713;-71
2022/01/13 08:03:24;;;;;;;47.10;21.70;;;;;;;-0.98;82.93;100350.61;221134;1268;25482;-72
2022/01/13 08:09:45;;;;;;;41.80;21.80;;;;;;;-1.03;83.05;100343.23;221261;1271;22635;-70
2022/01/13 08:15:20;;;;;;;40.50;19.90;;;;;;;-1.04;82.98;100332.88;220008;1269;24826;-71
2022/01/13 08:21:09;;;;;;;38.70;19.40;;;;;;;-0.93;83.08;100341.92;218831;1271;2967163;-70
2022/01/13 08:26:42;;;;;;;42.50;20.30;;;;;;;-0.81;82.88;100343.98;219470;1271;22561;-70
2022/01/13 08:31:46;;;;;;;38.30;18.60;;;;;;;-0.71;82.68;100350.89;218784;1268;22568;-70
2022/01/13 08:36:57;;;;;;;32.80;17.70;;;;;;;-0.53;82.69;100344.24;219510;1268;22593;-70
2022/01/13 08:48:00;;;;;;;35.60;17.70;;;;;;;-0.20;82.24;100355.93;219392;1268;25453;-70
2022/01/13 08:54:27;;;;;;;;;;;;;;;;;;;;;
2022/01/13 09:00:38;;;;;;;32.80;16.50;;;;;;;0.06;81.65;100365.41;221001;1271;22725;-69
2022/01/13 09:06:08;;;;;;;;;;;;;;;;;;;;;
2022/01/13 09:12:11;;;;;;;36.80;18.00;;;;;;;0.09;80.50;100353.45;221473;1268;22561;-70
2022/01/13 09:17:43;;;;;;;30.70;16.30;;;;;;;0.15;80.05;100342.88;220966;1271;22943;-71
2022/01/13 09:23:26;;;;;;;30.60;16.30;;;;;;;0.13;79.78;100335.91;221135;1268;22566;-70
2022/01/13 09:29:14;;;;;;;36.70;17.50;;;;;;;0.20;80.11;100341.31;221131;1271;25299;-71
2022/01/13 09:34:52;;;;;;;33.20;17.40;;;;;;;0.30;80.16;100319.68;221396;1268;24256;-72
2022/01/13 09:40:15;;;;;;;32.80;16.20;;;;;;;0.34;79.56;100324.29;221288;1268;22553;-71
2022/01/13 09:45:46;;;;;;;34.40;15.40;;;;;;;0.39;79.72;100303.55;221421;1268;24279;-70
2022/01/13 09:51:38;;;;;;;29.90;14.50;;;;;;;0.43;79.45;100292.30;219499;1271;22537;-70
2022/01/13 09:57:28;;;;;;;31.80;16.70;;;;;;;0.45;79.50;100303.13;219591;1270;24367;-71
2022/01/13 10:02:49;;;;;;;32.50;16.10;;;;;;;0.51;79.52;100302.10;221929;1271;22601;-70
2022/01/13 10:08:05;;;;;;;33.00;17.30;;;;;;;0.70;79.85;100298.25;222056;1268;25447;-70
2022/01/13 10:13:14;;;;;;;31.40;16.90;;;;;;;0.98;79.55;100285.00;221674;1271;23936;-70
2022/01/13 10:18:45;;;;;;;32.60;16.00;;;;;;;1.28;79.31;100279.83;221478;1269;22643;-70
2022/01/13 10:24:44;;;;;;;29.60;15.50;;;;;;;1.58;78.42;100277.14;221474;1268;26453;-69
2022/01/13 10:30:27;;;;;;;;;;;;;;;;;;;;;
2022/01/13 10:36:16;;;;;;;33.20;16.30;;;;;;;1.79;77.67;100246.27;221292;1270;25385;-70
2022/01/13 10:42:12;;;;;;;30.20;16.00;;;;;;;1.82;77.56;100239.33;219388;1268;23857;-70
2022/01/13 10:47:30;;;;;;;34.00;16.70;;;;;;;1.84;77.19;100247.27;221313;1269;25419;-69
2022/01/13 10:53:02;;;;;;;32.10;17.30;;;;;;;1.84;76.93;100228.52;221388;1270;22717;-70
2022/01/13 10:58:49;;;;;;;28.60;15.70;;;;;;;1.85;77.18;100244.23;221597;1270;24232;-71
2022/01/13 11:04:54;;;;;;;35.10;16.60;;;;;;;1.94;76.93;100227.88;221044;1269;22604;-70
2022/01/13 11:10:06;;;;;;;33.20;15.80;;;;;;;1.97;76.34;100228.38;219432;1271;24264;-71
2022/01/13 11:15:38;;;;;;;36.30;17.20;;;;;;;1.94;76.84;100227.52;221432;1268;25266;-70
2022/01/13 11:21:31;;;;;;;31.10;15.30;;;;;;;1.87;77.31;100220.61;221113;1271;22547;-69
2022/01/13 11:26:46;;;;;;;33.60;17.40;;;;;;;1.80;77.55;100220.13;221067;1268;23941;-70
2022/01/13 11:31:51;;;;;;;37.90;16.40;;;;;;;1.79;78.32;100208.08;221315;1270;24282;-71
2022/01/13 11:37:50;;;;;;;35.20;18.40;;;;;;;1.82;78.73;100208.19;221730;1270;24683;-71
2022/01/13 11:43:25;;;;;;;35.30;17.10;;;;;;;1.81;79.01;100199.00;221301;1268;22594;-71
2022/01/13 11:48:42;;;;;;;31.80;15.90;;;;;;;1.79;79.73;100193.13;221355;1268;25401;-70
2022/01/13 11:53:59;;;;;;;37.50;18.90;;;;;;;1.76;79.80;100197.02;221361;1268;22583;-70
2022/01/13 12:00:18;;;;;;;34.20;17.40;;;;;;;1.75;80.12;100194.81;221336;1268;22539;-69
2022/01/13 12:05:43;;;;;;;32.50;17.50;;;;;;;1.75;80.26;100181.27;221246;1268;25488;-71
2022/01/13 12:10:54;;;;;;;33.50;17.50;;;;;;;1.77;80.57;100174.30;221129;1271;22558;-71
2022/01/13 12:16:00;;;;;;;31.30;17.40;;;;;;;1.82;80.68;100174.33;221377;1268;24742;-71
2022/01/13 12:21:20;;;;;;;34.30;17.40;;;;;;;1.90;80.66;100163.86;221376;1271;22538;-71
2022/01/13 12:26:41;;;;;;;33.20;16.90;;;;;;;1.97;80.66;100150.15;221108;1269;22553;-70
2022/01/13 12:32:10;;;;;;;35.20;17.70;;;;;;;2.07;80.77;100131.02;221457;1271;24240;-71
2022/01/13 12:37:17;;;;;;;36.10;18.40;;;;;;;2.17;80.76;100114.95;221512;1268;23126;-72
2022/01/13 12:43:06;;;;;;;33.40;18.00;;;;;;;2.31;80.62;100118.27;221290;1271;22657;-71
2022/01/13 12:54:54;;;;;;;40.00;19.30;;;;;;;2.53;79.97;100102.34;221324;1268;24267;-70
2022/01/13 13:00:34;;;;;;;;;;;;;;;;;;;;;
2022/01/13 13:06:14;;;;;;;32.70;17.60;;;;;;;2.54;79.21;100065.96;221246;1268;24047;-70
2022/01/13 13:11:41;;;;;;;;;;;;;;;;;;;;;
2022/01/13 13:17:15;;;;;;;36.90;18.80;;;;;;;2.55;79.14;100054.81;221480;1268;22681;-71
2022/01/13 13:23:06;;;;;;;30.50;16.90;;;;;;;2.55;79.34;100053.67;221239;1271;22906;-71
2022/01/13 13:29:23;;;;;;;31.30;16.70;;;;;;;2.58;79.37;100054.09;221045;1271;22614;-71
2022/01/13 13:35:13;;;;;;;35.40;19.10;;;;;;;2.61;79.26;100048.84;220741;1271;22589;-72
2022/01/13 13:40:45;;;;;;;35.30;18.00;;;;;;;2.60;78.99;100049.20;221126;1271;23345;-71
2022/01/13 13:46:17;;;;;;;;;;;;;;;;;;;;;
2022/01/13 13:51:28;;;;;;;35.40;17.70;;;;;;;2.58;79.07;100051.19;221371;1269;22563;-71
2022/01/13 13:57:05;;;;;;;33.30;19.70;;;;;;;2.54;78.95;100056.89;221189;1271;22721;-71
2022/01/13 14:02:37;;;;;;;33.10;18.50;;;;;;;2.51;79.01;100065.20;221405;1271;22670;-71
2022/01/13 14:07:54;;;;;;;34.70;19.40;;;;;;;2.47;79.09;100075.58;221115;1271;22580;-70
2022/01/13 14:13:28;;;;;;;;;;;;;;;;;;;;;
2022/01/13 14:18:36;;;;;;;37.20;19.20;;;;;;;2.41;79.09;100078.14;221200;1271;22550;-69
2022/01/13 14:23:42;;;;;;;34.70;19.50;;;;;;;2.33;78.90;100076.04;220139;1269;24355;-69
2022/01/13 14:29:39;;;;;;;;;;;;;;;;;;;;;
2022/01/13 14:35:28;;;;;;;38.10;19.80;;;;;;;1.93;79.11;100067.48;219761;1269;25149;-69
2022/01/13 14:40:47;;;;;;;37.20;20.00;;;;;;;1.75;79.32;100066.29;219813;1269;22543;-70
2022/01/13 14:46:09;;;;;;;41.00;20.80;;;;;;;1.56;79.79;100065.33;221377;1271;22563;-72
2022/01/13 14:51:24;;;;;;;37.40;19.60;;;;;;;1.40;79.98;100068.42;221602;1268;22576;-71
2022/01/13 14:56:27;;;;;;;39.40;20.10;;;;;;;1.26;80.64;100065.99;221190;1269;22611;-70
2022/01/13 15:02:12;;;;;;;40.10;20.00;;;;;;;1.11;81.01;100065.42;221386;1269;22486;-70
2022/01/13 15:07:26;;;;;;;39.90;20.80;;;;;;;0.97;81.09;100071.52;221100;1271;23359;-70
2022/01/13 15:12:37;;;;;;;35.10;19.50;;;;;;;0.85;81.43;100072.11;219972;1271;22603;-71
2022/01/13 15:18:24;;;;;;;38.80;20.00;;;;;;;0.75;82.00;100073.20;220936;1271;22545;-71
2022/01/13 15:23:29;;;;;;;34.80;18.30;;;;;;;0.68;81.79;100076.42;221205;1271;22785;-70
2022/01/13 15:29:14;;;;;;;34.10;19.20;;;;;;;0.62;82.28;100075.70;221301;1269;24238;-70
2022/01/13 15:34:58;;;;;;;;;;;;;;;;;;;;;
2022/01/13 15:40:54;;;;;;;36.70;18.90;;;;;;;0.48;82.18;100088.35;221275;1271;25340;-70
2022/01/13 15:54:17;;;;;;;34.70;18.20;;;;;;;0.39;82.65;100093.30;220345;1271;26181;-71
2022/01/13 16:01:15;;;;;;;35.90;19.30;;;;;;;0.35;83.36;100082.53;221361;1271;23725;-70
2022/01/13 16:08:04;;;;;;;;;;;;;;;;;;;;;
2022/01/13 16:14:10;;;;;;;36.70;18.90;;;;;;;0.26;83.18;100094.08;220902;1271;22547;-70
2022/01/13 16:26:46;;;;;;;;;;;;;;;;;;;;;
2022/01/13 16:33:21;;;;;;;42.90;20.50;;;;;;;0.13;84.55;100062.66;221198;1270;24394;-70
2022/01/13 16:40:08;;;;;;;;;;;;;;;;;;;;;
2022/01/13 16:45:59;;;;;;;35.50;18.00;;;;;;;0.00;84.18;100056.58;220710;1271;23053;-70
2022/01/13 16:51:46;;;;;;;34.60;17.90;;;;;;;-0.06;84.39;100057.09;220761;1271;22709;-70
2022/01/13 16:57:11;;;;;;;39.80;18.90;;;;;;;-0.09;84.76;100057.90;220977;1271;22674;-70
2022/01/13 17:02:17;;;;;;;41.90;20.10;;;;;;;-0.11;85.07;100061.58;220690;1271;23196;-69
2022/01/13 17:07:42;;;;;;;;;;;;;;;;;;;;;
2022/01/13 17:13:22;;;;;;;37.00;18.40;;;;;;;-0.14;84.74;100078.30;220940;1271;22694;-71
2022/01/13 17:18:28;;;;;;;40.60;19.90;;;;;;;-0.15;85.06;100078.85;221116;1270;26744;-71
2022/01/13 17:24:10;;;;;;;41.30;20.70;;;;;;;-0.18;85.17;100084.52;221063;1270;22790;-70
2022/01/13 17:29:23;;;;;;;36.20;19.20;;;;;;;-0.22;84.96;100083.42;220520;1271;22630;-71
2022/01/13 17:35:05;;;;;;;39.00;20.30;;;;;;;-0.26;85.09;100074.89;220708;1271;24247;-71
2022/01/13 17:40:11;;;;;;;37.30;20.50;;;;;;;-0.30;85.64;100076.35;220934;1269;24282;-71
2022/01/13 17:45:14;;;;;;;42.80;22.90;;;;;;;-0.32;85.57;100086.42;220724;1270;24278;-71
2022/01/13 17:50:24;;;;;;;44.60;22.60;;;;;;;-0.33;86.19;100081.98;220985;1271;25434;-71
2022/01/13 17:55:33;;;;;;;46.80;25.00;;;;;;;-0.35;86.28;100081.71;220935;1271;22589;-70
2022/01/13 18:00:42;;;;;;;46.90;24.30;;;;;;;-0.35;86.15;100086.38;219716;1271;24782;-70
2022/01/13 18:05:52;;;;;;;46.40;24.70;;;;;;;-0.35;86.23;100085.57;219834;1271;22542;-71
2022/01/13 18:11:07;;;;;;;52.10;26.60;;;;;;;-0.38;86.25;100084.93;219679;1273;22701;-71
2022/01/13 18:16:19;;;;;;;50.40;24.90;;;;;;;-0.42;86.18;100079.34;220860;1271;24292;-70
2022/01/13 18:21:22;;;;;;;49.20;24.00;;;;;;;-0.45;86.26;100083.39;220433;1272;26753;-69
2022/01/13 18:26:24;;;;;;;48.00;24.40;;;;;;;-0.46;85.98;100089.12;219438;1271;25878;-70
2022/01/13 18:31:39;;;;;;;40.50;21.30;;;;;;;-0.47;86.07;100094.38;219233;1273;24405;-71
2022/01/13 18:36:47;;;;;;;47.40;24.00;;;;;;;-0.45;86.31;100087.67;220659;1271;26526;-71
2022/01/13 18:41:50;;;;;;;47.40;22.70;;;;;;;-0.37;86.25;100087.92;220580;1271;22568;-70
2022/01/13 18:46:55;;;;;;;41.70;21.80;;;;;;;-0.26;86.39;100081.17;220574;1271;22772;-71
2022/01/13 18:52:03;;;;;;;41.10;20.70;;;;;;;-0.15;86.37;100080.69;219603;1272;22585;-71
2022/01/13 18:57:07;;;;;;;37.70;19.20;;;;;;;-0.09;86.38;100077.08;219786;1270;22664;-71
2022/01/13 19:02:10;;;;;;;35.40;19.40;;;;;;;-0.06;86.45;100073.52;220193;1271;23368;-70
2022/01/13 19:07:24;;;;;;;37.20;19.90;;;;;;;0.00;86.65;100080.48;219486;1271;22707;-71
2022/01/13 19:12:42;;;;;;;38.10;20.30;;;;;;;0.04;86.74;100077.85;220420;1271;23115;-70
2022/01/13 19:17:57;;;;;;;36.20;18.80;;;;;;;0.09;86.79;100077.98;220808;1271;22703;-70
2022/01/13 19:23:02;;;;;;;42.30;21.30;;;;;;;0.16;86.95;100073.70;220767;1271;22590;-71
2022/01/13 19:28:07;;;;;;;41.60;21.40;;;;;;;0.23;86.81;100063.52;220848;1271;22553;-71
2022/01/13 19:33:21;;;;;;;40.90;22.20;;;;;;;0.32;86.73;100067.82;221054;1271;22630;-71
2022/01/13 19:38:31;;;;;;;39.10;21.20;;;;;;;0.43;86.52;100066.13;220849;1271;22670;-70
2022/01/13 19:43:59;;;;;;;39.80;21.30;;;;;;;0.49;86.34;100061.48;220923;1271;22496;-70
2022/01/13 19:49:03;;;;;;;;;;;;;;;0.53;86.35;100059.84;220766;1271;22663;-71
2022/01/13 19:54:08;;;;;;;42.10;21.10;;;;;;;0.54;86.49;100055.84;220741;1271;22653;-70
2022/01/13 19:59:13;;;;;;;46.80;22.90;;;;;;;0.55;86.40;100057.67;220575;1271;23038;-70
2022/01/13 20:04:27;;;;;;;51.00;24.30;;;;;;;0.60;86.60;100060.14;220778;1271;23021;-71
2022/01/13 20:09:39;;;;;;;50.50;23.90;;;;;;;0.67;86.33;100061.56;220927;1271;22715;-70
2022/01/13 20:15:00;;;;;;;;;;;;;;;;;;;;;
2022/01/13 20:20:34;;;;;;;41.80;20.10;;;;;;;0.80;86.26;100061.22;218750;1271;3110900;-71
2022/01/13 20:25:51;;;;;;;44.10;22.20;;;;;;;0.89;86.28;100056.08;220896;1271;25260;-70
2022/01/13 20:31:19;;;;;;;46.10;22.60;;;;;;;0.88;86.14;100058.15;220938;1271;24600;-71
2022/01/13 20:36:52;;;;;;;44.30;21.70;;;;;;;0.88;85.95;100056.48;220703;1271;23130;-71
2022/01/13 20:42:15;;;;;;;;;;;;;;;0.90;86.28;100059.79;220943;1271;23174;-71
2022/01/13 20:48:12;;;;;;;51.00;24.50;;;;;;;0.89;86.00;100056.01;220808;1271;22560;-71
2022/01/13 20:53:45;;;;;;;46.30;23.30;;;;;;;0.89;86.23;100057.66;220873;1271;23054;-71
2022/01/13 20:58:53;;;;;;;47.90;22.70;;;;;;;0.90;86.07;100046.27;220432;1273;22574;-70
2022/01/13 21:04:25;;;;;;;53.00;24.00;;;;;;;0.93;86.33;100044.27;220684;1272;22709;-71
2022/01/13 21:09:42;;;;;;;47.80;24.50;;;;;;;0.96;86.20;100036.24;220480;1271;25664;-71
2022/01/13 21:14:59;;;;;;;47.10;22.50;;;;;;;0.99;86.31;100031.83;220600;1271;25383;-70
2022/01/13 21:20:11;;;;;;;47.60;21.80;;;;;;;1.01;86.32;100026.64;220567;1271;25396;-71
2022/01/13 21:25:29;;;;;;;45.60;21.70;;;;;;;1.08;86.20;100019.73;220500;1271;22610;-70
2022/01/13 21:30:35;;;;;;;33.00;17.00;;;;;;;1.15;86.20;100021.23;220666;1271;22715;-70
2022/01/13 21:35:38;;;;;;;27.50;15.10;;;;;;;1.31;86.46;100013.79;220661;1271;24255;-70
2022/01/13 21:40:58;;;;;;;29.00;14.70;;;;;;;1.46;86.45;99996.66;220666;1271;23218;-70
2022/01/13 21:46:02;;;;;;;26.10;13.60;;;;;;;1.59;86.18;99993.98;220663;1271;25270;-70
2022/01/13 21:51:10;;;;;;;25.00;13.00;;;;;;;1.70;86.14;99982.34;219670;1271;22597;-71
2022/01/13 21:56:48;;;;;;;28.40;13.60;;;;;;;1.80;86.02;99973.13;220929;1271;24342;-71
2022/01/13 22:02:08;;;;;;;28.20;14.20;;;;;;;1.86;85.84;99972.49;220901;1271;22620;-70
2022/01/13 22:07:31;;;;;;;23.50;12.90;;;;;;;1.92;85.57;99960.71;220731;1271;22546;-70
2022/01/13 22:12:34;;;;;;;27.50;13.70;;;;;;;1.94;85.36;99955.80;219528;1271;23792;-71
2022/01/13 22:17:37;;;;;;;25.10;12.00;;;;;;;1.95;85.16;99953.44;221187;1271;25378;-70
2022/01/13 22:23:10;;;;;;;;;;;;;;;;;;;;;
2022/01/13 22:28:44;;;;;;;;;;;;;;;;;;;;;
2022/01/13 22:34:31;;;;;;;22.50;12.10;;;;;;;2.00;85.24;99926.10;220760;1271;25403;-71
2022/01/13 22:39:57;;;;;;;24.50;11.80;;;;;;;2.03;85.13;99915.45;220795;1271;22573;-71
2022/01/13 22:45:33;;;;;;;25.50;13.10;;;;;;;2.08;85.13;99919.16;220978;1271;25395;-70
2022/01/13 22:50:55;;;;;;;23.40;12.40;;;;;;;2.11;84.96;99922.70;220008;1270;23325;-71
2022/01/13 22:56:00;;;;;;;23.60;12.80;;;;;;;2.13;84.88;99911.35;221071;1271;22615;-70
2022/01/13 23:01:24;;;;;;;23.10;12.20;;;;;;;2.11;84.55;99900.33;220846;1271;22566;-71
2022/01/13 23:07:08;;;;;;;23.20;12.90;;;;;;;2.07;84.49;99886.42;220675;1271;25376;-70
2022/01/13 23:12:42;;;;;;;25.20;11.70;;;;;;;2.03;84.51;99880.48;220375;1271;27659;-69
2022/01/13 23:23:18;;;;;;;26.10;12.80;;;;;;;2.03;84.39;99876.66;220370;1271;22541;-71
2022/01/13 23:28:20;;;;;;;24.20;12.20;;;;;;;2.04;84.43;99876.34;220461;1271;22565;-70
2022/01/13 23:33:37;;;;;;;21.90;12.20;;;;;;;2.05;84.44;99875.98;220438;1270;22553;-70
2022/01/13 23:38:50;;;;;;;19.90;12.20;;;;;;;2.01;84.34;99870.94;219939;1270;22584;-70
2022/01/13 23:43:52;;;;;;;20.80;11.40;;;;;;;1.99;84.32;99870.08;219466;1271;22553;-69
2022/01/13 23:49:21;;;;;;;24.30;13.20;;;;;;;1.98;84.20;99869.14;219243;1273;22579;-71
2022/01/13 23:54:24;;;;;;;23.10;12.40;;;;;;;1.98;84.25;99865.61;219496;1270;26107;-71
2022/01/13 23:59:30;;;;;;;22.20;12.70;;;;;;;1.97;84.24;99864.71;221187;1270;22538;-69
